createdAt,value
2022-12-31T00:30:13.362Z,0
2022-12-31T00:30:53.876Z,0
2022-12-31T00:31:34.420Z,0
2022-12-31T00:32:14.753Z,0
2022-12-31T00:32:55.290Z,0
2022-12-31T00:33:35.707Z,0
2022-12-31T00:34:16.190Z,0
2022-12-31T00:34:56.676Z,0
2022-12-31T00:35:37.173Z,0
2022-12-31T00:36:17.662Z,0
2022-12-31T00:36:58.150Z,0
2022-12-31T00:43:43.101Z,0
2022-12-31T00:44:23.583Z,0
2022-12-31T00:45:04.074Z,0
2022-12-31T00:45:44.620Z,0
2022-12-31T00:46:25.154Z,0
2022-12-31T00:47:05.530Z,0
2022-12-31T00:47:46.005Z,0
2022-12-31T00:48:26.491Z,0
2022-12-31T00:49:06.980Z,0
2022-12-31T00:49:47.447Z,0
2022-12-31T00:50:27.970Z,0
2022-12-31T00:51:08.452Z,0
2022-12-31T00:51:48.938Z,0
2022-12-31T00:52:29.487Z,0
2022-12-31T00:53:09.958Z,0
2022-12-31T00:53:50.464Z,0
2022-12-31T00:59:15.246Z,0
2022-12-31T01:00:35.465Z,0
2022-12-31T01:01:16.053Z,0
2022-12-31T01:01:56.542Z,0
2022-12-31T01:02:37.095Z,0
2022-12-31T01:03:17.395Z,0
2022-12-31T01:03:57.863Z,0
2022-12-31T01:04:38.360Z,0
2022-12-31T01:05:18.864Z,0
2022-12-31T01:05:59.379Z,0
2022-12-31T01:06:39.906Z,0
2022-12-31T01:07:20.409Z,0
2022-12-31T01:14:05.392Z,0
2022-12-31T01:14:45.879Z,0
2022-12-31T01:15:26.441Z,0
2022-12-31T01:16:07.008Z,0
2022-12-31T01:16:47.428Z,0
2022-12-31T01:17:27.890Z,0
2022-12-31T01:18:08.355Z,0
2022-12-31T01:18:48.878Z,0
2022-12-31T01:19:30.159Z,0
2022-12-31T01:26:55.708Z,0
2022-12-31T01:27:36.143Z,0
2022-12-31T01:28:16.669Z,0
2022-12-31T01:28:57.133Z,0
2022-12-31T01:29:37.632Z,0
2022-12-31T01:30:18.091Z,0
2022-12-31T01:30:58.611Z,0
2022-12-31T01:31:39.071Z,0
2022-12-31T01:32:19.599Z,0
2022-12-31T01:33:00.108Z,0
2022-12-31T01:33:40.578Z,0
2022-12-31T01:40:25.593Z,0
2022-12-31T01:41:06.073Z,0
2022-12-31T01:41:46.571Z,0
2022-12-31T01:42:27.108Z,0
2022-12-31T01:43:07.615Z,0
2022-12-31T01:43:48.089Z,0
2022-12-31T01:44:28.575Z,0
2022-12-31T01:45:09.060Z,0
2022-12-31T01:45:49.553Z,0
2022-12-31T01:46:30.101Z,0
2022-12-31T01:47:10.563Z,0
2022-12-31T01:53:55.590Z,0
2022-12-31T01:54:36.070Z,0
2022-12-31T01:55:16.640Z,0
2022-12-31T01:55:57.102Z,0
2022-12-31T01:56:37.593Z,0
2022-12-31T01:57:18.092Z,0
2022-12-31T01:57:58.609Z,0
2022-12-31T01:58:39.109Z,0
2022-12-31T01:59:19.615Z,0
2022-12-31T02:00:00.108Z,0
2022-12-31T02:00:40.580Z,0
2022-12-31T02:07:25.546Z,0
2022-12-31T02:08:06.051Z,0
2022-12-31T02:08:46.527Z,0
2022-12-31T02:09:27.033Z,0
2022-12-31T02:10:07.560Z,0
2022-12-31T02:10:48.081Z,0
2022-12-31T02:11:28.571Z,0
2022-12-31T02:12:09.086Z,0
2022-12-31T02:13:30.105Z,0
2022-12-31T02:14:10.559Z,0
2022-12-31T02:20:55.547Z,0
2022-12-31T02:21:36.029Z,0
2022-12-31T02:22:16.560Z,0
2022-12-31T02:22:56.987Z,0
2022-12-31T02:23:37.494Z,0
2022-12-31T02:24:18.054Z,0
2022-12-31T02:24:58.586Z,0
2022-12-31T02:25:39.081Z,0
2022-12-31T02:26:19.604Z,0
2022-12-31T02:27:00.100Z,0
2022-12-31T02:27:40.560Z,0
2022-12-31T02:34:25.591Z,0
2022-12-31T02:35:06.779Z,0
2022-12-31T02:35:47.253Z,0
2022-12-31T02:36:27.766Z,0
2022-12-31T02:37:08.281Z,0
2022-12-31T02:37:48.804Z,0
2022-12-31T02:38:29.401Z,0
2022-12-31T02:39:09.911Z,0
2022-12-31T02:39:50.404Z,0
2022-12-31T02:46:35.431Z,0
2022-12-31T02:47:15.872Z,0
2022-12-31T02:47:56.373Z,0
2022-12-31T02:48:36.887Z,0
2022-12-31T02:49:17.360Z,0
2022-12-31T02:49:57.909Z,0
2022-12-31T02:50:38.369Z,0
2022-12-31T02:51:18.852Z,0
2022-12-31T02:54:32.635Z,0
2022-12-31T02:55:13.108Z,0
2022-12-31T02:55:53.632Z,0
2022-12-31T02:56:34.132Z,0
2022-12-31T02:57:14.608Z,0
2022-12-31T02:57:55.108Z,0
2022-12-31T02:58:35.611Z,0
2022-12-31T02:59:16.125Z,0
2022-12-31T02:59:56.603Z,0
2022-12-31T03:00:37.128Z,0
2022-12-31T03:01:17.673Z,0
2022-12-31T03:03:45.534Z,0
2022-12-31T03:04:26.027Z,0
2022-12-31T03:05:06.546Z,0
2022-12-31T03:05:47.024Z,0
2022-12-31T03:06:27.508Z,0
2022-12-31T03:07:07.998Z,0
2022-12-31T03:07:48.489Z,0
2022-12-31T03:08:29.198Z,0
2022-12-31T03:09:09.700Z,0
2022-12-31T03:09:50.159Z,0
2022-12-31T03:16:35.239Z,0
2022-12-31T03:17:15.654Z,0
2022-12-31T03:17:56.157Z,0
2022-12-31T03:18:36.636Z,0
2022-12-31T03:19:17.144Z,0
2022-12-31T03:19:57.671Z,0
2022-12-31T03:20:38.188Z,0
2022-12-31T03:21:18.624Z,0
2022-12-31T03:21:59.125Z,0
2022-12-31T03:22:39.614Z,0
2022-12-31T03:23:20.118Z,0
2022-12-31T03:30:05.889Z,0
2022-12-31T03:30:45.523Z,0
2022-12-31T03:31:26.099Z,0
2022-12-31T03:32:06.478Z,0
2022-12-31T03:32:46.996Z,0
2022-12-31T03:34:07.963Z,0
2022-12-31T03:34:48.464Z,0
2022-12-31T03:35:28.944Z,0
2022-12-31T03:36:09.496Z,0
2022-12-31T03:36:49.950Z,0
2022-12-31T03:37:30.423Z,0
2022-12-31T03:42:30.532Z,0
2022-12-31T03:43:11.845Z,0
2022-12-31T03:43:52.333Z,0
2022-12-31T03:44:32.815Z,0
2022-12-31T03:45:13.286Z,0
2022-12-31T03:46:34.281Z,0
2022-12-31T03:47:14.790Z,0
2022-12-31T03:47:55.285Z,0
2022-12-31T03:54:40.302Z,0
2022-12-31T03:55:20.769Z,0
2022-12-31T03:56:01.307Z,0
2022-12-31T03:56:41.786Z,0
2022-12-31T03:57:22.326Z,0
2022-12-31T03:58:02.774Z,0
2022-12-31T03:58:43.265Z,0
2022-12-31T03:59:23.759Z,0
2022-12-31T04:00:04.263Z,0
2022-12-31T04:00:44.847Z,0
2022-12-31T04:01:25.376Z,0
2022-12-31T04:05:44.814Z,0
2022-12-31T04:06:25.386Z,0
2022-12-31T04:07:05.838Z,0
2022-12-31T04:07:46.312Z,0
2022-12-31T04:09:07.264Z,0
2022-12-31T04:09:47.718Z,0
2022-12-31T04:10:28.233Z,0
2022-12-31T04:11:08.781Z,0
2022-12-31T04:11:49.256Z,0
2022-12-31T04:12:29.727Z,0
2022-12-31T04:19:14.515Z,0
2022-12-31T04:19:54.988Z,0
2022-12-31T04:20:35.463Z,0
2022-12-31T04:21:15.955Z,0
2022-12-31T04:21:56.484Z,0
2022-12-31T04:22:36.954Z,0
2022-12-31T04:23:17.522Z,0
2022-12-31T04:23:57.965Z,0
2022-12-31T04:24:38.511Z,0
2022-12-31T04:25:18.976Z,0
2022-12-31T04:25:59.477Z,0
2022-12-31T04:32:44.548Z,0
2022-12-31T04:33:25.065Z,0
2022-12-31T04:34:05.573Z,0
2022-12-31T04:34:46.076Z,0
2022-12-31T04:35:26.591Z,0
2022-12-31T04:36:47.628Z,0
2022-12-31T04:37:28.147Z,0
2022-12-31T04:38:08.598Z,0
2022-12-31T04:38:49.117Z,0
2022-12-31T04:39:29.618Z,0
2022-12-31T04:45:34.610Z,0
2022-12-31T04:46:15.167Z,0
2022-12-31T04:46:55.611Z,0
2022-12-31T04:47:36.102Z,0
2022-12-31T04:48:16.598Z,0
2022-12-31T04:48:57.099Z,0
2022-12-31T04:49:37.651Z,0
2022-12-31T04:50:18.152Z,0
2022-12-31T04:50:58.652Z,0
2022-12-31T04:51:39.142Z,0
2022-12-31T04:52:19.656Z,0
2022-12-31T04:59:04.696Z,0
2022-12-31T04:59:45.179Z,0
2022-12-31T05:00:25.664Z,0
2022-12-31T05:01:06.304Z,0
2022-12-31T05:01:46.735Z,0
2022-12-31T05:02:27.421Z,0
2022-12-31T05:03:07.741Z,0
2022-12-31T05:03:48.142Z,0
2022-12-31T05:04:28.626Z,0
2022-12-31T05:05:09.119Z,0
2022-12-31T05:05:49.617Z,0
2022-12-31T05:12:34.743Z,0
2022-12-31T05:13:15.241Z,0
2022-12-31T05:13:55.706Z,0
2022-12-31T05:14:36.239Z,0
2022-12-31T05:15:16.790Z,0
2022-12-31T05:15:57.283Z,0
2022-12-31T05:17:18.254Z,0
2022-12-31T05:17:58.779Z,0
2022-12-31T05:18:39.272Z,0
2022-12-31T05:26:04.686Z,0
2022-12-31T05:29:18.423Z,0
2022-12-31T05:29:58.916Z,0
2022-12-31T05:30:39.396Z,0
2022-12-31T05:31:19.986Z,0
2022-12-31T05:32:00.392Z,0
2022-12-31T05:32:40.873Z,0
2022-12-31T05:33:21.377Z,0
2022-12-31T05:34:42.409Z,0
2022-12-31T05:35:22.919Z,0
2022-12-31T05:36:03.398Z,0
2022-12-31T05:42:48.288Z,0
2022-12-31T05:43:28.786Z,0
2022-12-31T05:44:09.303Z,0
2022-12-31T05:44:49.758Z,0
2022-12-31T05:45:31.095Z,0
2022-12-31T05:46:10.757Z,0
2022-12-31T05:46:51.257Z,0
2022-12-31T05:47:31.787Z,0
2022-12-31T05:48:12.283Z,0
2022-12-31T05:48:52.767Z,0
2022-12-31T05:49:33.261Z,0
2022-12-31T06:31:48.493Z,0
2022-12-31T06:32:28.949Z,0
2022-12-31T06:33:09.461Z,0
2022-12-31T06:33:49.957Z,0
2022-12-31T06:34:30.434Z,0
2022-12-31T06:35:10.937Z,0
2022-12-31T06:35:51.450Z,0
2022-12-31T06:36:31.934Z,0
2022-12-31T06:37:12.399Z,0
2022-12-31T06:38:33.381Z,0
2022-12-31T06:45:18.357Z,0
2022-12-31T06:45:58.867Z,0
2022-12-31T06:46:39.417Z,0
2022-12-31T06:47:19.914Z,0
2022-12-31T06:48:00.413Z,0
2022-12-31T06:48:40.851Z,0
2022-12-31T06:49:21.354Z,0
2022-12-31T06:50:01.910Z,0
2022-12-31T06:50:42.425Z,0
2022-12-31T06:51:22.943Z,0
2022-12-31T06:52:03.451Z,0
2022-12-31T06:58:48.437Z,0
2022-12-31T06:59:28.941Z,0
2022-12-31T07:00:09.422Z,0
2022-12-31T07:00:49.944Z,0
2022-12-31T07:01:30.637Z,0
2022-12-31T07:02:10.990Z,0
2022-12-31T07:02:51.559Z,0
2022-12-31T07:03:31.950Z,0
2022-12-31T07:04:12.437Z,0
2022-12-31T07:04:52.909Z,0
2022-12-31T07:05:33.445Z,0
2022-12-31T07:09:38.247Z,0
2022-12-31T07:10:21.575Z,0
2022-12-31T07:10:59.292Z,0
2022-12-31T07:11:39.720Z,0
2022-12-31T07:12:20.168Z,0
2022-12-31T07:13:00.665Z,0
2022-12-31T07:13:41.137Z,0
2022-12-31T07:14:21.676Z,0
2022-12-31T07:15:02.199Z,0
2022-12-31T07:15:42.727Z,0
2022-12-31T07:16:23.187Z,0
2022-12-31T07:23:08.205Z,0
2022-12-31T07:23:48.739Z,0
2022-12-31T07:24:29.179Z,0
2022-12-31T07:25:09.656Z,0
2022-12-31T07:25:50.146Z,0
2022-12-31T07:26:30.657Z,0
2022-12-31T07:27:11.159Z,4
2022-12-31T07:27:51.633Z,4
2022-12-31T07:28:32.140Z,0
2022-12-31T07:29:12.645Z,4
2022-12-31T07:29:53.118Z,4
2022-12-31T07:36:38.112Z,0
2022-12-31T07:37:18.603Z,0
2022-12-31T07:37:59.100Z,4
2022-12-31T07:38:39.588Z,4
2022-12-31T07:39:20.073Z,4
2022-12-31T07:40:00.556Z,0
2022-12-31T07:40:41.052Z,4
2022-12-31T07:41:21.526Z,4
2022-12-31T07:42:02.005Z,4
2022-12-31T07:42:42.486Z,8
2022-12-31T07:43:22.978Z,4
2022-12-31T07:44:03.497Z,4
2022-12-31T07:53:01.543Z,24
2022-12-31T07:53:42.190Z,24
2022-12-31T07:54:22.734Z,24
2022-12-31T07:55:03.289Z,20
2022-12-31T07:55:43.715Z,24
2022-12-31T07:56:24.202Z,24
2022-12-31T07:57:04.735Z,24
2022-12-31T07:57:45.244Z,28
2022-12-31T07:58:25.716Z,28
2022-12-31T07:59:06.206Z,32
2022-12-31T08:05:51.277Z,40
2022-12-31T08:06:31.787Z,36
2022-12-31T08:07:12.338Z,36
2022-12-31T08:07:52.801Z,36
2022-12-31T08:08:33.323Z,36
2022-12-31T08:09:13.797Z,40
2022-12-31T08:09:54.269Z,40
2022-12-31T08:10:34.819Z,40
2022-12-31T08:11:15.245Z,44
2022-12-31T08:11:55.749Z,40
2022-12-31T08:12:36.238Z,40
2022-12-31T08:20:01.772Z,60
2022-12-31T08:20:42.190Z,64
2022-12-31T08:21:22.675Z,72
2022-12-31T08:22:03.190Z,76
2022-12-31T08:22:43.691Z,88
2022-12-31T08:23:24.195Z,92
2022-12-31T08:24:04.714Z,84
2022-12-31T08:24:45.231Z,76
2022-12-31T08:25:25.682Z,76
2022-12-31T08:33:31.697Z,184
2022-12-31T08:34:12.173Z,188
2022-12-31T08:34:52.707Z,168
2022-12-31T08:35:33.286Z,200
2022-12-31T08:36:13.710Z,180
2022-12-31T08:36:54.197Z,180
2022-12-31T08:37:34.702Z,184
2022-12-31T08:38:15.214Z,204
2022-12-31T08:38:55.700Z,252
2022-12-31T08:39:36.213Z,260
2022-12-31T08:47:01.719Z,140
2022-12-31T08:47:42.211Z,124
2022-12-31T08:48:22.707Z,140
2022-12-31T08:49:03.196Z,204
2022-12-31T08:49:43.674Z,236
2022-12-31T08:50:24.183Z,256
2022-12-31T08:51:04.686Z,248
2022-12-31T08:51:45.171Z,248
2022-12-31T08:52:25.650Z,208
2022-12-31T08:53:06.159Z,236
2022-12-31T09:00:31.707Z,224
2022-12-31T09:01:12.379Z,296
2022-12-31T09:01:52.871Z,248
2022-12-31T09:04:05.511Z,220
2022-12-31T09:04:45.914Z,300
2022-12-31T09:05:26.482Z,340
2022-12-31T09:06:06.905Z,284
2022-12-31T09:06:47.463Z,240
2022-12-31T09:07:27.919Z,212
2022-12-31T09:08:08.395Z,208
2022-12-31T09:08:48.867Z,172
2022-12-31T09:09:29.347Z,156
2022-12-31T09:10:09.847Z,152
2022-12-31T09:10:50.352Z,172
2022-12-31T09:17:35.389Z,172
2022-12-31T09:18:15.899Z,172
2022-12-31T09:18:56.395Z,164
2022-12-31T09:19:36.895Z,160
2022-12-31T09:20:17.390Z,200
2022-12-31T09:20:57.871Z,208
2022-12-31T09:21:38.360Z,248
2022-12-31T09:22:18.875Z,296
2022-12-31T09:22:59.311Z,304
2022-12-31T09:23:39.800Z,300
2022-12-31T09:24:20.329Z,316
2022-12-31T09:31:05.307Z,216
2022-12-31T09:31:45.855Z,204
2022-12-31T09:32:26.344Z,188
2022-12-31T09:33:06.835Z,180
2022-12-31T09:33:47.363Z,208
2022-12-31T09:34:27.849Z,196
2022-12-31T09:35:08.343Z,172
2022-12-31T09:35:48.855Z,164
2022-12-31T09:36:29.389Z,212
2022-12-31T09:37:09.902Z,208
2022-12-31T09:37:50.469Z,240
2022-12-31T09:46:13.662Z,164
2022-12-31T09:46:54.116Z,152
2022-12-31T09:47:34.564Z,168
2022-12-31T09:48:15.047Z,172
2022-12-31T09:48:55.660Z,176
2022-12-31T09:49:36.028Z,156
2022-12-31T09:50:16.557Z,156
2022-12-31T09:50:57.019Z,148
2022-12-31T09:51:37.587Z,144
2022-12-31T09:52:18.085Z,164
2022-12-31T09:52:58.605Z,200
2022-12-31T09:59:43.528Z,156
2022-12-31T10:00:24.037Z,156
2022-12-31T10:01:04.623Z,204
2022-12-31T10:01:45.131Z,200
2022-12-31T10:02:25.684Z,176
2022-12-31T10:03:06.051Z,188
2022-12-31T10:03:46.463Z,200
2022-12-31T10:04:27.729Z,236
2022-12-31T10:05:08.181Z,228
2022-12-31T10:11:53.340Z,236
2022-12-31T10:12:33.855Z,240
2022-12-31T10:13:14.336Z,228
2022-12-31T10:13:54.824Z,228
2022-12-31T10:14:35.362Z,248
2022-12-31T10:15:15.875Z,260
2022-12-31T10:15:56.337Z,276
2022-12-31T10:16:36.867Z,292
2022-12-31T10:17:17.372Z,304
2022-12-31T10:17:57.863Z,300
2022-12-31T10:18:38.319Z,304
2022-12-31T10:26:03.736Z,468
2022-12-31T10:26:47.286Z,508
2022-12-31T10:27:24.722Z,536
2022-12-31T10:28:05.183Z,540
2022-12-31T10:28:45.667Z,548
2022-12-31T10:29:26.137Z,548
2022-12-31T10:30:06.619Z,500
2022-12-31T10:30:47.151Z,488
2022-12-31T10:31:27.600Z,468
2022-12-31T10:32:08.095Z,424
2022-12-31T10:32:48.625Z,420
2022-12-31T10:39:33.663Z,428
2022-12-31T10:40:14.190Z,404
2022-12-31T10:40:54.650Z,400
2022-12-31T10:41:35.172Z,412
2022-12-31T10:42:15.669Z,464
2022-12-31T10:42:56.186Z,484
2022-12-31T10:43:36.665Z,440
2022-12-31T10:44:17.236Z,544
2022-12-31T10:44:57.661Z,556
2022-12-31T10:45:38.178Z,548
2022-12-31T10:46:22.791Z,544
2022-12-31T10:53:03.591Z,588
2022-12-31T10:53:44.116Z,584
2022-12-31T10:54:24.602Z,524
2022-12-31T10:55:05.186Z,532
2022-12-31T10:55:45.679Z,452
2022-12-31T10:56:26.137Z,448
2022-12-31T10:57:06.644Z,396
2022-12-31T10:57:47.125Z,388
2022-12-31T10:58:27.633Z,344
2022-12-31T10:59:08.121Z,372
2022-12-31T11:06:33.766Z,332
2022-12-31T11:07:14.312Z,356
2022-12-31T11:07:54.772Z,396
2022-12-31T11:10:16.003Z,492
2022-12-31T11:11:04.344Z,496
2022-12-31T11:11:44.282Z,504
2022-12-31T11:12:24.955Z,508
2022-12-31T11:13:05.473Z,500
2022-12-31T11:17:48.947Z,592
2022-12-31T11:18:29.488Z,608
2022-12-31T11:19:09.995Z,628
2022-12-31T11:19:50.519Z,620
2022-12-31T11:20:31.158Z,664
2022-12-31T11:21:11.596Z,712
2022-12-31T11:21:52.694Z,696
2022-12-31T11:22:33.256Z,676
2022-12-31T11:23:13.716Z,624
2022-12-31T11:29:18.752Z,636
2022-12-31T11:29:59.271Z,644
2022-12-31T11:30:40.035Z,628
2022-12-31T11:31:20.520Z,612
2022-12-31T11:32:01.027Z,592
2022-12-31T11:32:41.715Z,580
2022-12-31T11:33:22.244Z,584
2022-12-31T11:34:02.898Z,576
2022-12-31T11:34:43.470Z,568
2022-12-31T11:40:08.767Z,304
2022-12-31T11:40:49.315Z,272
2022-12-31T11:41:29.824Z,256
2022-12-31T11:42:10.429Z,232
2022-12-31T11:42:50.904Z,216
2022-12-31T11:43:31.701Z,224
2022-12-31T11:44:12.652Z,228
2022-12-31T11:44:53.335Z,228
2022-12-31T11:45:34.141Z,220
2022-12-31T11:50:59.116Z,244
2022-12-31T11:51:39.598Z,272
2022-12-31T11:52:21.702Z,300
2022-12-31T11:53:00.830Z,336
2022-12-31T12:32:15.689Z,604
2022-12-31T12:32:56.807Z,556
2022-12-31T12:33:37.995Z,488
2022-12-31T12:34:19.326Z,460
2022-12-31T12:38:23.502Z,244
2022-12-31T12:39:03.942Z,228
2022-12-31T12:39:44.514Z,252
2022-12-31T12:41:57.140Z,400
2022-12-31T12:42:37.636Z,384
2022-12-31T12:43:18.171Z,380
2022-12-31T12:43:58.597Z,356
2022-12-31T12:44:39.112Z,312
2022-12-31T12:45:19.559Z,276
2022-12-31T12:46:43.576Z,244
2022-12-31T12:47:21.220Z,232
2022-12-31T12:48:01.686Z,248
2022-12-31T12:55:27.112Z,292
2022-12-31T12:56:07.629Z,252
2022-12-31T12:56:48.144Z,244
2022-12-31T12:57:28.635Z,260
2022-12-31T12:58:10.723Z,240
2022-12-31T12:58:49.639Z,196
2022-12-31T12:59:30.196Z,188
2022-12-31T13:00:10.750Z,176
2022-12-31T13:00:51.213Z,160
2022-12-31T13:01:31.735Z,156
2022-12-31T13:02:12.235Z,172
2022-12-31T13:08:57.237Z,216
2022-12-31T13:09:37.706Z,204
2022-12-31T13:10:18.214Z,216
2022-12-31T13:10:58.713Z,228
2022-12-31T13:11:39.174Z,216
2022-12-31T13:12:19.689Z,196
2022-12-31T13:13:40.668Z,156
2022-12-31T13:14:21.162Z,140
2022-12-31T13:15:42.168Z,120
2022-12-31T13:22:27.153Z,148
2022-12-31T13:23:07.623Z,172
2022-12-31T13:23:48.133Z,224
2022-12-31T13:24:28.658Z,228
2022-12-31T13:25:09.133Z,220
2022-12-31T13:25:49.654Z,252
2022-12-31T13:26:30.133Z,292
2022-12-31T13:27:10.683Z,296
2022-12-31T13:27:51.167Z,288
2022-12-31T13:28:31.655Z,344
2022-12-31T13:29:12.144Z,340
2022-12-31T13:35:57.140Z,196
2022-12-31T13:36:37.643Z,196
2022-12-31T13:37:18.166Z,196
2022-12-31T13:38:03.328Z,220
2022-12-31T13:38:39.131Z,288
2022-12-31T13:39:19.644Z,336
2022-12-31T13:40:00.161Z,364
2022-12-31T13:40:40.653Z,364
2022-12-31T13:41:21.163Z,388
2022-12-31T13:42:01.655Z,452
2022-12-31T13:42:42.153Z,468
2022-12-31T13:49:27.102Z,308
2022-12-31T13:50:12.598Z,268
2022-12-31T13:50:48.116Z,252
2022-12-31T13:51:28.582Z,236
2022-12-31T13:52:09.117Z,236
2022-12-31T13:52:49.602Z,232
2022-12-31T13:53:30.158Z,216
2022-12-31T13:54:10.641Z,220
2022-12-31T13:54:51.121Z,228
2022-12-31T13:55:31.648Z,220
2022-12-31T13:56:12.101Z,204
2022-12-31T14:02:57.121Z,248
2022-12-31T14:03:37.551Z,244
2022-12-31T14:04:58.611Z,300
2022-12-31T14:05:39.027Z,340
2022-12-31T14:06:19.501Z,360
2022-12-31T14:06:59.993Z,376
2022-12-31T14:07:45.687Z,372
2022-12-31T14:08:21.012Z,368
2022-12-31T14:09:01.489Z,360
2022-12-31T14:09:41.998Z,340
2022-12-31T14:16:27.002Z,248
2022-12-31T14:17:07.422Z,260
2022-12-31T14:17:47.923Z,252
2022-12-31T14:18:28.439Z,252
2022-12-31T14:19:08.989Z,256
2022-12-31T14:19:49.450Z,256
2022-12-31T14:20:29.982Z,248
2022-12-31T14:21:10.446Z,240
2022-12-31T14:21:50.933Z,236
2022-12-31T14:22:31.437Z,228
2022-12-31T14:23:11.946Z,224
2022-12-31T14:29:17.219Z,212
2022-12-31T14:29:57.716Z,208
2022-12-31T14:30:38.232Z,204
2022-12-31T14:31:18.813Z,200
2022-12-31T14:31:59.387Z,200
2022-12-31T14:32:39.816Z,192
2022-12-31T14:34:00.835Z,184
2022-12-31T14:34:41.351Z,180
2022-12-31T14:35:21.889Z,176
2022-12-31T14:42:06.873Z,156
2022-12-31T14:42:47.376Z,160
2022-12-31T14:43:27.904Z,156
2022-12-31T14:44:08.388Z,156
2022-12-31T14:44:48.880Z,152
2022-12-31T14:45:29.441Z,148
2022-12-31T14:46:09.860Z,140
2022-12-31T14:46:50.385Z,136
2022-12-31T14:47:30.893Z,128
2022-12-31T14:48:11.373Z,124
2022-12-31T14:48:51.878Z,120
2022-12-31T14:56:17.350Z,84
2022-12-31T14:56:57.820Z,84
2022-12-31T14:57:54.710Z,80
2022-12-31T14:58:27.976Z,76
2022-12-31T14:58:59.361Z,72
2022-12-31T15:00:20.371Z,64
2022-12-31T15:01:00.996Z,60
2022-12-31T15:01:41.488Z,60
2022-12-31T15:04:09.325Z,60
2022-12-31T15:04:49.871Z,56
2022-12-31T15:05:30.295Z,56
2022-12-31T15:06:10.810Z,56
2022-12-31T15:06:51.315Z,56
2022-12-31T15:07:31.789Z,52
2022-12-31T15:08:12.336Z,52
2022-12-31T15:08:52.755Z,48
2022-12-31T15:09:33.300Z,48
2022-12-31T15:10:13.765Z,44
2022-12-31T15:10:54.267Z,40
2022-12-31T15:17:39.297Z,28
2022-12-31T15:18:19.811Z,28
2022-12-31T15:19:00.324Z,28
2022-12-31T15:19:40.832Z,28
2022-12-31T15:20:21.320Z,28
2022-12-31T15:21:01.832Z,28
2022-12-31T15:21:42.376Z,24
2022-12-31T15:22:22.927Z,24
2022-12-31T15:23:03.411Z,24
2022-12-31T15:23:43.925Z,24
2022-12-31T15:27:03.193Z,20
2022-12-31T15:27:43.667Z,20
2022-12-31T15:28:24.895Z,20
2022-12-31T15:29:04.648Z,20
2022-12-31T15:29:45.099Z,20
2022-12-31T15:30:25.592Z,20
2022-12-31T15:31:06.088Z,20
2022-12-31T15:31:46.612Z,16
2022-12-31T15:32:27.088Z,20
2022-12-31T15:33:07.571Z,20
2022-12-31T15:33:48.072Z,16
2022-12-31T15:40:33.100Z,12
2022-12-31T15:41:13.584Z,12
2022-12-31T15:42:38.882Z,8
2022-12-31T15:43:15.040Z,8
2022-12-31T15:43:55.523Z,8
2022-12-31T15:44:36.084Z,8
2022-12-31T15:45:16.506Z,4
2022-12-31T15:45:57.028Z,4
2022-12-31T15:46:37.579Z,8
2022-12-31T15:47:17.966Z,4
2022-12-31T15:54:02.902Z,0
2022-12-31T15:54:43.387Z,0
2022-12-31T15:55:23.875Z,0
2022-12-31T15:56:04.378Z,0
2022-12-31T15:56:44.858Z,0
2022-12-31T15:57:25.350Z,0
2022-12-31T15:58:05.852Z,0
2022-12-31T15:58:46.332Z,0
2022-12-31T15:59:26.863Z,0
2022-12-31T16:00:07.910Z,0
2022-12-31T16:00:47.841Z,0
2022-12-31T16:07:08.946Z,0
2022-12-31T16:07:49.461Z,0
2022-12-31T16:08:29.947Z,0
2022-12-31T16:09:10.382Z,0
2022-12-31T16:09:50.881Z,0
2022-12-31T16:10:31.391Z,0
2022-12-31T16:11:11.918Z,0
2022-12-31T16:11:52.390Z,0
2022-12-31T16:12:35.135Z,0
2022-12-31T16:13:13.340Z,0
2022-12-31T16:13:53.837Z,0
2022-12-31T16:20:38.981Z,0
2022-12-31T16:21:19.450Z,0
2022-12-31T16:21:59.942Z,0
2022-12-31T16:22:40.438Z,0
2022-12-31T16:23:20.919Z,0
2022-12-31T16:24:01.397Z,0
2022-12-31T16:24:55.417Z,0
2022-12-31T16:25:31.416Z,0
2022-12-31T16:26:02.911Z,0
2022-12-31T16:26:43.365Z,0
2022-12-31T16:27:23.868Z,0
2022-12-31T16:34:08.914Z,0
2022-12-31T16:34:49.433Z,0
2022-12-31T16:35:29.885Z,0
2022-12-31T16:36:10.356Z,0
2022-12-31T16:36:50.854Z,0
2022-12-31T16:37:31.320Z,0
2022-12-31T16:38:11.805Z,0
2022-12-31T16:39:32.834Z,0
2022-12-31T16:40:13.307Z,0
2022-12-31T16:40:53.823Z,0
2022-12-31T16:47:38.736Z,0
2022-12-31T16:48:19.240Z,0
2022-12-31T16:48:59.727Z,0
2022-12-31T16:49:40.238Z,0
2022-12-31T16:50:20.676Z,0
2022-12-31T16:51:01.234Z,0
2022-12-31T16:51:41.695Z,0
2022-12-31T16:52:22.164Z,0
2022-12-31T16:53:02.689Z,0
2022-12-31T16:53:43.154Z,0
2022-12-31T16:54:23.639Z,0
2022-12-31T17:01:49.229Z,0
2022-12-31T17:02:29.877Z,0
2022-12-31T17:03:10.229Z,0
2022-12-31T17:03:50.680Z,0
2022-12-31T17:07:04.403Z,0
2022-12-31T17:07:45.792Z,0
2022-12-31T17:08:26.257Z,0
2022-12-31T17:09:06.742Z,0
2022-12-31T17:09:47.214Z,0
2022-12-31T17:10:27.727Z,0
2022-12-31T17:11:08.206Z,0
2022-12-31T17:11:48.706Z,0
2022-12-31T17:12:29.233Z,0
2022-12-31T17:19:14.401Z,0
2022-12-31T17:19:54.895Z,0
2022-12-31T17:20:35.389Z,0
2022-12-31T17:21:15.862Z,0
2022-12-31T17:21:56.365Z,0
2022-12-31T17:22:37.396Z,0
2022-12-31T17:23:17.388Z,0
2022-12-31T17:23:57.906Z,0
2022-12-31T17:24:38.402Z,0
2022-12-31T17:25:18.894Z,0
2022-12-31T17:25:59.397Z,0
2022-12-31T17:32:44.269Z,0
2022-12-31T17:33:24.779Z,0
2022-12-31T17:34:05.271Z,0
2022-12-31T17:34:45.765Z,0
2022-12-31T17:35:26.227Z,0
2022-12-31T17:36:06.744Z,0
2022-12-31T17:36:47.239Z,0
2022-12-31T17:37:27.813Z,0
2022-12-31T17:38:08.266Z,0
2022-12-31T17:38:48.742Z,0
2022-12-31T17:39:29.268Z,0
2022-12-31T17:46:14.429Z,0
2022-12-31T17:46:54.916Z,0
2022-12-31T17:47:35.352Z,0
2022-12-31T17:48:15.867Z,0
2022-12-31T17:48:56.416Z,0
2022-12-31T17:49:36.867Z,0
2022-12-31T17:50:17.368Z,0
2022-12-31T17:50:57.871Z,0
2022-12-31T17:51:41.255Z,0
2022-12-31T17:52:18.853Z,0
2022-12-31T18:34:10.268Z,0
2022-12-31T18:34:50.798Z,0
2022-12-31T18:36:06.891Z,0
2022-12-31T18:36:11.865Z,0
2022-12-31T18:36:52.333Z,0
2022-12-31T18:37:32.814Z,0
2022-12-31T18:38:13.287Z,0
2022-12-31T18:38:53.760Z,0
2022-12-31T18:39:34.291Z,0
2022-12-31T18:40:14.803Z,0
2022-12-31T18:47:40.224Z,0
2022-12-31T18:48:20.728Z,0
2022-12-31T18:49:01.241Z,0
2022-12-31T18:49:41.790Z,0
2022-12-31T18:50:22.263Z,0
2022-12-31T18:51:02.803Z,0
2022-12-31T18:51:43.309Z,0
2022-12-31T18:52:23.793Z,0
2022-12-31T18:53:04.314Z,0
2022-12-31T18:53:44.811Z,0
2022-12-31T18:54:25.301Z,0
2022-12-31T19:01:10.317Z,0
2022-12-31T19:01:50.832Z,0
2022-12-31T19:02:31.214Z,0
2022-12-31T19:03:11.818Z,0
2022-12-31T19:03:52.230Z,0
2022-12-31T19:04:32.758Z,0
2022-12-31T19:05:13.291Z,0
2022-12-31T19:05:53.794Z,0
2022-12-31T19:06:34.271Z,0
2022-12-31T19:07:14.747Z,0
2022-12-31T19:07:55.242Z,0
2022-12-31T19:14:40.157Z,0
2022-12-31T19:15:20.679Z,0
2022-12-31T19:16:01.216Z,0
2022-12-31T19:16:41.704Z,0
2022-12-31T19:18:54.900Z,0
2022-12-31T19:19:35.352Z,0
2022-12-31T19:20:15.861Z,0
2022-12-31T19:20:56.337Z,0
2022-12-31T19:21:36.878Z,0
2022-12-31T19:22:17.347Z,0
2022-12-31T19:22:57.924Z,0
2022-12-31T19:23:38.395Z,0
2022-12-31T19:24:18.897Z,0
2022-12-31T19:24:59.410Z,0
2022-12-31T19:31:44.380Z,0
2022-12-31T19:32:24.872Z,0
2022-12-31T19:33:05.346Z,0
2022-12-31T19:33:45.882Z,0
2022-12-31T19:34:26.355Z,0
2022-12-31T19:35:06.926Z,0
2022-12-31T19:35:47.525Z,0
2022-12-31T19:36:27.935Z,0
2022-12-31T19:37:08.412Z,0
2022-12-31T19:37:48.944Z,0
2022-12-31T19:45:14.527Z,0
2022-12-31T19:45:55.135Z,0
2022-12-31T19:46:35.555Z,0
2022-12-31T19:47:16.027Z,0
2022-12-31T19:47:56.566Z,0
2022-12-31T19:48:37.035Z,0
2022-12-31T19:49:17.551Z,0
2022-12-31T19:49:57.987Z,0
2022-12-31T19:50:38.483Z,0
2022-12-31T19:51:19.060Z,0
2022-12-31T19:51:59.536Z,0
2022-12-31T19:58:00.241Z,0
2022-12-31T19:58:40.737Z,0
2022-12-31T19:59:21.236Z,0
2022-12-31T20:00:01.745Z,0
2022-12-31T20:00:42.224Z,0
2022-12-31T20:01:22.835Z,0
2022-12-31T20:02:03.313Z,0
2022-12-31T20:02:43.831Z,0
2022-12-31T20:03:24.360Z,0
2022-12-31T20:04:04.696Z,0
2022-12-31T20:04:45.188Z,0
2022-12-31T20:11:30.107Z,0
2022-12-31T20:12:10.609Z,0
2022-12-31T20:12:51.109Z,0
2022-12-31T20:13:31.626Z,0
2022-12-31T20:14:12.159Z,0
2022-12-31T20:14:52.624Z,0
2022-12-31T20:15:33.140Z,0
2022-12-31T20:16:54.209Z,0
2022-12-31T20:17:34.546Z,0